sensor_id;sensor_type;location;lat;lon;timestamp;temperature;humidity
50738;DHT22;36703;48.154;17.126;2023-04-03T00:00:42;10.50;46.20
50738;DHT22;36703;48.154;17.126;2023-04-03T00:04:43;10.50;46.40
50738;DHT22;36703;48.154;17.126;2023-04-03T00:08:45;10.40;46.40
50738;DHT22;36703;48.154;17.126;2023-04-03T00:12:46;10.40;46.50
50738;DHT22;36703;48.154;17.126;2023-04-03T00:16:48;10.50;46.50
50738;DHT22;36703;48.154;17.126;2023-04-03T00:20:49;10.50;46.50
50738;DHT22;36703;48.154;17.126;2023-04-03T00:24:51;10.50;46.40
50738;DHT22;36703;48.154;17.126;2023-04-03T00:28:52;10.50;46.50
50738;DHT22;36703;48.154;17.126;2023-04-03T00:32:54;10.50;46.50
50738;DHT22;36703;48.154;17.126;2023-04-03T00:36:55;10.50;46.50
50738;DHT22;36703;48.154;17.126;2023-04-03T00:40:58;10.50;46.60
50738;DHT22;36703;48.154;17.126;2023-04-03T00:49:01;10.50;46.60
50738;DHT22;36703;48.154;17.126;2023-04-03T00:53:03;10.50;46.70
50738;DHT22;36703;48.154;17.126;2023-04-03T00:57:06;10.60;46.70
50738;DHT22;36703;48.154;17.126;2023-04-03T01:01:08;10.50;46.70
50738;DHT22;36703;48.154;17.126;2023-04-03T01:05:12;10.40;46.70
50738;DHT22;36703;48.154;17.126;2023-04-03T01:09:14;10.40;46.80
50738;DHT22;36703;48.154;17.126;2023-04-03T01:13:26;10.40;46.80
50738;DHT22;36703;48.154;17.126;2023-04-03T01:21:53;10.40;47.00
50738;DHT22;36703;48.154;17.126;2023-04-03T01:26:00;10.30;46.90
50738;DHT22;36703;48.154;17.126;2023-04-03T01:30:02;10.30;46.90
50738;DHT22;36703;48.154;17.126;2023-04-03T01:34:03;10.30;47.10
50738;DHT22;36703;48.154;17.126;2023-04-03T01:38:06;10.30;47.10
50738;DHT22;36703;48.154;17.126;2023-04-03T01:42:08;10.20;47.20
50738;DHT22;36703;48.154;17.126;2023-04-03T01:46:14;10.20;47.20
50738;DHT22;36703;48.154;17.126;2023-04-03T01:50:18;10.20;47.20
50738;DHT22;36703;48.154;17.126;2023-04-03T01:54:20;10.10;47.20
50738;DHT22;36703;48.154;17.126;2023-04-03T01:58:22;10.10;47.30
50738;DHT22;36703;48.154;17.126;2023-04-03T02:02:25;10.10;47.10
50738;DHT22;36703;48.154;17.126;2023-04-03T02:06:27;10.10;47.10
50738;DHT22;36703;48.154;17.126;2023-04-03T02:10:28;10.00;47.00
50738;DHT22;36703;48.154;17.126;2023-04-03T02:14:31;10.00;47.00
50738;DHT22;36703;48.154;17.126;2023-04-03T02:18:32;10.10;47.00
50738;DHT22;36703;48.154;17.126;2023-04-03T02:22:34;10.20;46.80
50738;DHT22;36703;48.154;17.126;2023-04-03T02:26:35;10.30;46.80
50738;DHT22;36703;48.154;17.126;2023-04-03T02:30:37;10.30;46.70
50738;DHT22;36703;48.154;17.126;2023-04-03T02:34:39;10.30;46.60
50738;DHT22;36703;48.154;17.126;2023-04-03T02:38:41;10.20;46.50
50738;DHT22;36703;48.154;17.126;2023-04-03T02:42:44;10.20;46.60
50738;DHT22;36703;48.154;17.126;2023-04-03T02:46:46;10.10;47.20
50738;DHT22;36703;48.154;17.126;2023-04-03T02:50:48;10.10;46.50
50738;DHT22;36703;48.154;17.126;2023-04-03T02:54:49;10.00;46.50
50738;DHT22;36703;48.154;17.126;2023-04-03T02:58:52;9.90;46.70
50738;DHT22;36703;48.154;17.126;2023-04-03T03:02:54;9.90;46.80
50738;DHT22;36703;48.154;17.126;2023-04-03T03:06:55;10.00;46.80
50738;DHT22;36703;48.154;17.126;2023-04-03T03:10:56;10.00;46.80
50738;DHT22;36703;48.154;17.126;2023-04-03T03:14:58;10.00;46.80
50738;DHT22;36703;48.154;17.126;2023-04-03T03:18:59;10.00;46.80
50738;DHT22;36703;48.154;17.126;2023-04-03T03:23:01;9.90;46.90
50738;DHT22;36703;48.154;17.126;2023-04-03T03:27:02;9.90;47.00
50738;DHT22;36703;48.154;17.126;2023-04-03T03:31:04;9.90;47.00
50738;DHT22;36703;48.154;17.126;2023-04-03T03:35:07;9.80;47.00
50738;DHT22;36703;48.154;17.126;2023-04-03T03:39:09;9.90;46.90
50738;DHT22;36703;48.154;17.126;2023-04-03T03:43:10;9.80;46.80
50738;DHT22;36703;48.154;17.126;2023-04-03T03:47:12;9.80;46.80
50738;DHT22;36703;48.154;17.126;2023-04-03T03:51:14;9.80;46.70
50738;DHT22;36703;48.154;17.126;2023-04-03T03:55:16;9.80;46.60
50738;DHT22;36703;48.154;17.126;2023-04-03T03:59:17;9.90;46.60
50738;DHT22;36703;48.154;17.126;2023-04-03T04:03:20;9.90;46.50
50738;DHT22;36703;48.154;17.126;2023-04-03T04:07:23;9.90;46.50
50738;DHT22;36703;48.154;17.126;2023-04-03T04:11:25;10.00;46.50
50738;DHT22;36703;48.154;17.126;2023-04-03T04:15:29;9.90;46.50
50738;DHT22;36703;48.154;17.126;2023-04-03T04:19:31;9.90;46.60
50738;DHT22;36703;48.154;17.126;2023-04-03T04:23:34;9.90;46.60
50738;DHT22;36703;48.154;17.126;2023-04-03T04:27:36;9.90;46.60
50738;DHT22;36703;48.154;17.126;2023-04-03T04:31:38;9.80;46.70
50738;DHT22;36703;48.154;17.126;2023-04-03T04:35:41;9.80;46.90
50738;DHT22;36703;48.154;17.126;2023-04-03T04:39:43;9.70;46.90
50738;DHT22;36703;48.154;17.126;2023-04-03T04:43:45;9.60;46.90
50738;DHT22;36703;48.154;17.126;2023-04-03T04:47:47;9.60;47.10
50738;DHT22;36703;48.154;17.126;2023-04-03T04:51:49;9.60;47.10
50738;DHT22;36703;48.154;17.126;2023-04-03T04:55:53;9.70;47.00
50738;DHT22;36703;48.154;17.126;2023-04-03T04:59:54;9.60;47.00
50738;DHT22;36703;48.154;17.126;2023-04-03T05:03:56;9.60;47.10
50738;DHT22;36703;48.154;17.126;2023-04-03T05:07:59;9.70;46.90
50738;DHT22;36703;48.154;17.126;2023-04-03T05:12:01;9.60;46.90
50738;DHT22;36703;48.154;17.126;2023-04-03T05:16:07;9.60;46.90
50738;DHT22;36703;48.154;17.126;2023-04-03T05:20:09;9.60;46.90
50738;DHT22;36703;48.154;17.126;2023-04-03T05:24:12;9.60;46.90
50738;DHT22;36703;48.154;17.126;2023-04-03T05:28:17;9.60;46.70
50738;DHT22;36703;48.154;17.126;2023-04-03T05:32:19;9.60;46.80
50738;DHT22;36703;48.154;17.126;2023-04-03T05:36:24;9.60;46.80
50738;DHT22;36703;48.154;17.126;2023-04-03T05:40:31;9.70;46.70
50738;DHT22;36703;48.154;17.126;2023-04-03T05:44:33;9.70;46.70
50738;DHT22;36703;48.154;17.126;2023-04-03T05:48:34;9.70;46.60
50738;DHT22;36703;48.154;17.126;2023-04-03T05:52:36;9.70;46.60
50738;DHT22;36703;48.154;17.126;2023-04-03T05:56:40;9.60;46.70
50738;DHT22;36703;48.154;17.126;2023-04-03T06:00:42;9.50;46.70
50738;DHT22;36703;48.154;17.126;2023-04-03T06:04:44;9.40;46.70
50738;DHT22;36703;48.154;17.126;2023-04-03T06:08:45;9.40;46.80
50738;DHT22;36703;48.154;17.126;2023-04-03T06:12:47;9.40;46.80
50738;DHT22;36703;48.154;17.126;2023-04-03T06:16:48;9.40;46.80
50738;DHT22;36703;48.154;17.126;2023-04-03T06:20:50;9.40;46.70
50738;DHT22;36703;48.154;17.126;2023-04-03T06:24:51;9.40;46.50
50738;DHT22;36703;48.154;17.126;2023-04-03T06:28:53;9.30;46.50
50738;DHT22;36703;48.154;17.126;2023-04-03T06:32:54;9.30;46.50
50738;DHT22;36703;48.154;17.126;2023-04-03T06:36:56;9.30;46.30
50738;DHT22;36703;48.154;17.126;2023-04-03T06:40:58;9.20;46.30
50738;DHT22;36703;48.154;17.126;2023-04-03T06:44:59;9.20;46.20
50738;DHT22;36703;48.154;17.126;2023-04-03T06:49:01;9.40;46.10
50738;DHT22;36703;48.154;17.126;2023-04-03T06:53:02;9.50;45.70
50738;DHT22;36703;48.154;17.126;2023-04-03T06:57:04;9.50;45.50
50738;DHT22;36703;48.154;17.126;2023-04-03T07:01:06;9.50;45.00
50738;DHT22;36703;48.154;17.126;2023-04-03T07:05:07;9.50;44.90
50738;DHT22;36703;48.154;17.126;2023-04-03T07:09:09;9.40;44.50
50738;DHT22;36703;48.154;17.126;2023-04-03T07:13:11;9.40;44.40
50738;DHT22;36703;48.154;17.126;2023-04-03T07:17:13;9.40;44.20
50738;DHT22;36703;48.154;17.126;2023-04-03T07:21:14;9.50;44.10
50738;DHT22;36703;48.154;17.126;2023-04-03T07:25:16;9.60;43.50
50738;DHT22;36703;48.154;17.126;2023-04-03T07:29:17;9.70;43.60
50738;DHT22;36703;48.154;17.126;2023-04-03T07:33:19;9.80;43.40
50738;DHT22;36703;48.154;17.126;2023-04-03T07:37:23;9.90;43.10
50738;DHT22;36703;48.154;17.126;2023-04-03T07:41:25;9.90;42.70
50738;DHT22;36703;48.154;17.126;2023-04-03T07:45:26;10.00;42.70
50738;DHT22;36703;48.154;17.126;2023-04-03T07:49:27;10.20;42.50
50738;DHT22;36703;48.154;17.126;2023-04-03T07:53:29;10.50;42.40
50738;DHT22;36703;48.154;17.126;2023-04-03T07:57:31;10.70;42.20
50738;DHT22;36703;48.154;17.126;2023-04-03T08:01:32;10.90;42.00
50738;DHT22;36703;48.154;17.126;2023-04-03T08:05:41;11.00;41.70
50738;DHT22;36703;48.154;17.126;2023-04-03T08:09:43;11.00;41.20
50738;DHT22;36703;48.154;17.126;2023-04-03T08:13:45;11.00;41.00
50738;DHT22;36703;48.154;17.126;2023-04-03T08:17:47;11.00;40.80
50738;DHT22;36703;48.154;17.126;2023-04-03T08:21:48;11.10;40.60
50738;DHT22;36703;48.154;17.126;2023-04-03T08:25:49;11.00;39.90
50738;DHT22;36703;48.154;17.126;2023-04-03T08:29:51;10.70;39.20
50738;DHT22;36703;48.154;17.126;2023-04-03T08:33:53;10.50;39.10
50738;DHT22;36703;48.154;17.126;2023-04-03T08:37:55;10.50;39.20
50738;DHT22;36703;48.154;17.126;2023-04-03T08:41:57;10.70;38.90
50738;DHT22;36703;48.154;17.126;2023-04-03T08:46:00;10.70;37.90
50738;DHT22;36703;48.154;17.126;2023-04-03T08:50:04;10.80;37.50
50738;DHT22;36703;48.154;17.126;2023-04-03T08:54:11;10.90;37.50
50738;DHT22;36703;48.154;17.126;2023-04-03T08:58:26;11.10;37.60
50738;DHT22;36703;48.154;17.126;2023-04-03T09:02:33;11.10;37.00
50738;DHT22;36703;48.154;17.126;2023-04-03T09:06:36;11.00;36.70
50738;DHT22;36703;48.154;17.126;2023-04-03T09:10:39;11.00;36.40
50738;DHT22;36703;48.154;17.126;2023-04-03T09:14:43;11.00;35.70
50738;DHT22;36703;48.154;17.126;2023-04-03T09:18:50;11.10;35.30
50738;DHT22;36703;48.154;17.126;2023-04-03T09:22:57;11.20;34.90
50738;DHT22;36703;48.154;17.126;2023-04-03T09:26:59;11.40;34.60
50738;DHT22;36703;48.154;17.126;2023-04-03T09:31:16;11.50;34.40
50738;DHT22;36703;48.154;17.126;2023-04-03T09:35:23;11.70;35.10
50738;DHT22;36703;48.154;17.126;2023-04-03T09:39:28;11.90;34.20
50738;DHT22;36703;48.154;17.126;2023-04-03T09:43:34;12.00;34.30
50738;DHT22;36703;48.154;17.126;2023-04-03T09:47:36;12.20;34.30
50738;DHT22;36703;48.154;17.126;2023-04-03T09:51:38;12.40;34.30
50738;DHT22;36703;48.154;17.126;2023-04-03T09:55:41;12.50;34.20
50738;DHT22;36703;48.154;17.126;2023-04-03T09:59:47;12.50;34.00
50738;DHT22;36703;48.154;17.126;2023-04-03T10:04:03;12.60;33.90
50738;DHT22;36703;48.154;17.126;2023-04-03T10:12:16;14.00;32.50
50738;DHT22;36703;48.154;17.126;2023-04-03T10:16:22;14.00;31.10
50738;DHT22;36703;48.154;17.126;2023-04-03T10:24:50;14.50;30.00
50738;DHT22;36703;48.154;17.126;2023-04-03T10:59:32;17.00;27.20
50738;DHT22;36703;48.154;17.126;2023-04-03T11:03:38;17.70;27.00
50738;DHT22;36703;48.154;17.126;2023-04-03T11:07:43;18.20;27.10
50738;DHT22;36703;48.154;17.126;2023-04-03T11:11:47;17.90;26.20
50738;DHT22;36703;48.154;17.126;2023-04-03T11:15:51;16.40;26.70
50738;DHT22;36703;48.154;17.126;2023-04-03T11:23:56;16.80;27.10
50738;DHT22;36703;48.154;17.126;2023-04-03T11:28:03;16.70;26.90
50738;DHT22;36703;48.154;17.126;2023-04-03T11:32:13;17.10;27.30
50738;DHT22;36703;48.154;17.126;2023-04-03T11:40:24;17.30;26.20
50738;DHT22;36703;48.154;17.126;2023-04-03T11:44:37;17.60;26.00
50738;DHT22;36703;48.154;17.126;2023-04-03T11:48:42;17.00;26.00
50738;DHT22;36703;48.154;17.126;2023-04-03T11:56:50;18.10;25.60
50738;DHT22;36703;48.154;17.126;2023-04-03T12:01:05;18.70;25.10
50738;DHT22;36703;48.154;17.126;2023-04-03T12:05:27;18.70;24.90
50738;DHT22;36703;48.154;17.126;2023-04-03T12:17:57;17.00;24.80
50738;DHT22;36703;48.154;17.126;2023-04-03T12:26:04;16.90;24.90
50738;DHT22;36703;48.154;17.126;2023-04-03T12:30:26;17.00;25.10
50738;DHT22;36703;48.154;17.126;2023-04-03T12:34:44;17.10;25.00
50738;DHT22;36703;48.154;17.126;2023-04-03T12:39:09;17.10;24.90
50738;DHT22;36703;48.154;17.126;2023-04-03T12:47:43;16.70;24.90
50738;DHT22;36703;48.154;17.126;2023-04-03T12:51:44;17.20;25.00
50738;DHT22;36703;48.154;17.126;2023-04-03T12:55:46;17.20;24.60
50738;DHT22;36703;48.154;17.126;2023-04-03T12:59:48;17.30;24.70
50738;DHT22;36703;48.154;17.126;2023-04-03T13:03:56;17.60;24.70
50738;DHT22;36703;48.154;17.126;2023-04-03T13:08:02;18.20;24.50
50738;DHT22;36703;48.154;17.126;2023-04-03T13:12:13;18.30;24.10
50738;DHT22;36703;48.154;17.126;2023-04-03T13:16:16;18.50;24.10
50738;DHT22;36703;48.154;17.126;2023-04-03T13:20:28;18.50;23.80
50738;DHT22;36703;48.154;17.126;2023-04-03T13:24:33;18.50;23.80
50738;DHT22;36703;48.154;17.126;2023-04-03T13:28:38;18.60;23.60
50738;DHT22;36703;48.154;17.126;2023-04-03T13:32:41;18.60;23.70
50738;DHT22;36703;48.154;17.126;2023-04-03T13:36:45;18.60;23.40
50738;DHT22;36703;48.154;17.126;2023-04-03T13:41:02;19.20;23.50
50738;DHT22;36703;48.154;17.126;2023-04-03T13:49:22;19.70;23.00
50738;DHT22;36703;48.154;17.126;2023-04-03T13:53:31;18.50;23.40
50738;DHT22;36703;48.154;17.126;2023-04-03T13:57:33;17.50;23.90
50738;DHT22;36703;48.154;17.126;2023-04-03T14:01:40;16.50;24.60
50738;DHT22;36703;48.154;17.126;2023-04-03T14:05:43;15.70;25.20
50738;DHT22;36703;48.154;17.126;2023-04-03T14:09:46;14.80;25.50
50738;DHT22;36703;48.154;17.126;2023-04-03T14:13:48;14.20;27.10
50738;DHT22;36703;48.154;17.126;2023-04-03T14:17:51;13.60;26.20
50738;DHT22;36703;48.154;17.126;2023-04-03T14:21:53;13.40;26.40
50738;DHT22;36703;48.154;17.126;2023-04-03T14:25:56;13.30;26.30
50738;DHT22;36703;48.154;17.126;2023-04-03T14:29:57;13.20;26.30
50738;DHT22;36703;48.154;17.126;2023-04-03T14:33:59;13.00;26.30
50738;DHT22;36703;48.154;17.126;2023-04-03T14:38:01;12.90;26.50
50738;DHT22;36703;48.154;17.126;2023-04-03T14:42:02;12.80;26.60
50738;DHT22;36703;48.154;17.126;2023-04-03T14:46:04;12.80;26.40
50738;DHT22;36703;48.154;17.126;2023-04-03T14:50:07;12.50;26.40
50738;DHT22;36703;48.154;17.126;2023-04-03T14:54:16;12.30;26.70
50738;DHT22;36703;48.154;17.126;2023-04-03T14:58:20;12.20;27.30
50738;DHT22;36703;48.154;17.126;2023-04-03T15:06:27;12.10;27.10
50738;DHT22;36703;48.154;17.126;2023-04-03T15:10:29;12.10;27.30
50738;DHT22;36703;48.154;17.126;2023-04-03T15:14:31;12.00;27.30
50738;DHT22;36703;48.154;17.126;2023-04-03T15:18:35;11.80;27.20
50738;DHT22;36703;48.154;17.126;2023-04-03T15:22:38;11.60;27.20
50738;DHT22;36703;48.154;17.126;2023-04-03T15:26:40;11.60;27.30
50738;DHT22;36703;48.154;17.126;2023-04-03T15:30:42;11.40;27.40
50738;DHT22;36703;48.154;17.126;2023-04-03T15:34:43;11.40;27.60
50738;DHT22;36703;48.154;17.126;2023-04-03T15:38:45;11.30;27.60
50738;DHT22;36703;48.154;17.126;2023-04-03T15:42:46;11.30;27.60
50738;DHT22;36703;48.154;17.126;2023-04-03T15:46:48;11.30;27.60
50738;DHT22;36703;48.154;17.126;2023-04-03T15:50:52;11.30;27.60
50738;DHT22;36703;48.154;17.126;2023-04-03T15:54:53;11.20;27.50
50738;DHT22;36703;48.154;17.126;2023-04-03T15:58:55;11.20;27.60
50738;DHT22;36703;48.154;17.126;2023-04-03T16:02:58;11.40;27.80
50738;DHT22;36703;48.154;17.126;2023-04-03T16:07:02;11.40;27.90
50738;DHT22;36703;48.154;17.126;2023-04-03T16:11:04;11.40;27.90
50738;DHT22;36703;48.154;17.126;2023-04-03T16:15:05;11.40;28.10
50738;DHT22;36703;48.154;17.126;2023-04-03T16:19:07;11.50;28.10
50738;DHT22;36703;48.154;17.126;2023-04-03T16:23:09;11.40;28.10
50738;DHT22;36703;48.154;17.126;2023-04-03T16:27:11;11.30;28.30
50738;DHT22;36703;48.154;17.126;2023-04-03T16:31:13;11.40;28.30
50738;DHT22;36703;48.154;17.126;2023-04-03T16:35:14;11.50;28.40
50738;DHT22;36703;48.154;17.126;2023-04-03T16:39:16;11.40;28.30
50738;DHT22;36703;48.154;17.126;2023-04-03T16:43:17;11.20;28.40
50738;DHT22;36703;48.154;17.126;2023-04-03T16:47:19;11.00;28.90
50738;DHT22;36703;48.154;17.126;2023-04-03T16:51:20;10.80;28.50
50738;DHT22;36703;48.154;17.126;2023-04-03T16:55:22;10.60;29.10
50738;DHT22;36703;48.154;17.126;2023-04-03T16:59:23;10.60;28.70
50738;DHT22;36703;48.154;17.126;2023-04-03T17:03:25;10.50;28.70
50738;DHT22;36703;48.154;17.126;2023-04-03T17:07:26;10.40;28.80
50738;DHT22;36703;48.154;17.126;2023-04-03T17:11:28;10.20;28.80
50738;DHT22;36703;48.154;17.126;2023-04-03T17:15:30;10.10;28.90
50738;DHT22;36703;48.154;17.126;2023-04-03T17:19:32;10.10;29.00
50738;DHT22;36703;48.154;17.126;2023-04-03T17:23:33;10.00;29.00
50738;DHT22;36703;48.154;17.126;2023-04-03T17:27:36;10.00;29.10
50738;DHT22;36703;48.154;17.126;2023-04-03T17:31:38;10.00;29.10
50738;DHT22;36703;48.154;17.126;2023-04-03T17:35:39;9.90;29.10
50738;DHT22;36703;48.154;17.126;2023-04-03T17:39:41;9.90;29.20
50738;DHT22;36703;48.154;17.126;2023-04-03T17:43:42;9.80;29.30
50738;DHT22;36703;48.154;17.126;2023-04-03T17:47:43;9.80;29.30
50738;DHT22;36703;48.154;17.126;2023-04-03T17:51:46;9.70;29.40
50738;DHT22;36703;48.154;17.126;2023-04-03T17:55:48;9.70;29.40
50738;DHT22;36703;48.154;17.126;2023-04-03T17:59:49;9.70;29.50
50738;DHT22;36703;48.154;17.126;2023-04-03T18:03:54;9.90;29.60
50738;DHT22;36703;48.154;17.126;2023-04-03T18:07:57;9.60;29.50
50738;DHT22;36703;48.154;17.126;2023-04-03T18:12:00;9.60;29.60
50738;DHT22;36703;48.154;17.126;2023-04-03T18:16:04;9.50;29.60
50738;DHT22;36703;48.154;17.126;2023-04-03T18:20:06;9.50;29.70
50738;DHT22;36703;48.154;17.126;2023-04-03T18:24:11;9.50;29.70
50738;DHT22;36703;48.154;17.126;2023-04-03T18:28:13;9.40;29.70
50738;DHT22;36703;48.154;17.126;2023-04-03T18:32:16;9.40;29.80
50738;DHT22;36703;48.154;17.126;2023-04-03T18:36:19;9.30;29.90
50738;DHT22;36703;48.154;17.126;2023-04-03T18:40:21;9.30;30.00
50738;DHT22;36703;48.154;17.126;2023-04-03T18:44:22;9.30;30.00
50738;DHT22;36703;48.154;17.126;2023-04-03T18:48:24;9.20;30.00
50738;DHT22;36703;48.154;17.126;2023-04-03T18:52:26;9.10;30.00
50738;DHT22;36703;48.154;17.126;2023-04-03T18:56:27;9.00;30.10
50738;DHT22;36703;48.154;17.126;2023-04-03T19:00:29;9.00;30.10
50738;DHT22;36703;48.154;17.126;2023-04-03T19:04:30;9.00;30.20
50738;DHT22;36703;48.154;17.126;2023-04-03T19:08:31;9.00;30.20
50738;DHT22;36703;48.154;17.126;2023-04-03T19:12:33;8.90;30.20
50738;DHT22;36703;48.154;17.126;2023-04-03T19:16:35;8.90;30.30
50738;DHT22;36703;48.154;17.126;2023-04-03T19:20:36;8.80;30.40
50738;DHT22;36703;48.154;17.126;2023-04-03T19:24:38;8.80;30.40
50738;DHT22;36703;48.154;17.126;2023-04-03T19:28:39;8.80;30.40
50738;DHT22;36703;48.154;17.126;2023-04-03T19:32:41;8.80;30.60
50738;DHT22;36703;48.154;17.126;2023-04-03T19:36:43;8.80;30.60
50738;DHT22;36703;48.154;17.126;2023-04-03T19:40:45;8.70;30.60
50738;DHT22;36703;48.154;17.126;2023-04-03T19:44:47;8.70;30.70
50738;DHT22;36703;48.154;17.126;2023-04-03T19:48:49;8.60;30.80
50738;DHT22;36703;48.154;17.126;2023-04-03T19:52:50;8.60;30.90
50738;DHT22;36703;48.154;17.126;2023-04-03T19:56:51;8.60;31.00
50738;DHT22;36703;48.154;17.126;2023-04-03T20:00:53;8.50;31.10
50738;DHT22;36703;48.154;17.126;2023-04-03T20:04:54;8.40;31.20
50738;DHT22;36703;48.154;17.126;2023-04-03T20:08:56;8.40;31.40
50738;DHT22;36703;48.154;17.126;2023-04-03T20:12:57;8.30;31.50
50738;DHT22;36703;48.154;17.126;2023-04-03T20:16:58;8.30;31.60
50738;DHT22;36703;48.154;17.126;2023-04-03T20:21:01;8.30;31.70
50738;DHT22;36703;48.154;17.126;2023-04-03T20:25:04;8.20;31.80
50738;DHT22;36703;48.154;17.126;2023-04-03T20:29:06;8.20;31.90
50738;DHT22;36703;48.154;17.126;2023-04-03T20:33:08;8.20;32.10
50738;DHT22;36703;48.154;17.126;2023-04-03T20:37:09;8.10;32.10
50738;DHT22;36703;48.154;17.126;2023-04-03T20:41:10;8.10;32.30
50738;DHT22;36703;48.154;17.126;2023-04-03T20:45:12;8.10;32.40
50738;DHT22;36703;48.154;17.126;2023-04-03T20:49:14;8.10;32.40
50738;DHT22;36703;48.154;17.126;2023-04-03T20:53:15;8.10;32.50
50738;DHT22;36703;48.154;17.126;2023-04-03T20:57:18;8.00;32.60
50738;DHT22;36703;48.154;17.126;2023-04-03T21:01:21;8.00;32.60
50738;DHT22;36703;48.154;17.126;2023-04-03T21:05:23;8.00;32.80
50738;DHT22;36703;48.154;17.126;2023-04-03T21:22:55;7.90;33.00
50738;DHT22;36703;48.154;17.126;2023-04-03T21:26:56;7.80;33.00
50738;DHT22;36703;48.154;17.126;2023-04-03T21:30:58;7.80;33.00
50738;DHT22;36703;48.154;17.126;2023-04-03T21:34:59;7.80;33.10
50738;DHT22;36703;48.154;17.126;2023-04-03T21:39:01;7.80;33.30
50738;DHT22;36703;48.154;17.126;2023-04-03T21:43:02;7.80;33.30
50738;DHT22;36703;48.154;17.126;2023-04-03T21:47:05;7.70;33.40
50738;DHT22;36703;48.154;17.126;2023-04-03T21:51:06;7.70;33.50
50738;DHT22;36703;48.154;17.126;2023-04-03T21:55:08;7.70;33.50
50738;DHT22;36703;48.154;17.126;2023-04-03T21:59:09;7.70;33.60
50738;DHT22;36703;48.154;17.126;2023-04-03T22:03:11;7.70;33.60
50738;DHT22;36703;48.154;17.126;2023-04-03T22:07:18;7.70;33.50
50738;DHT22;36703;48.154;17.126;2023-04-03T22:11:20;7.60;33.60
50738;DHT22;36703;48.154;17.126;2023-04-03T22:15:24;7.50;33.70
50738;DHT22;36703;48.154;17.126;2023-04-03T22:19:26;7.50;33.80
50738;DHT22;36703;48.154;17.126;2023-04-03T22:23:27;7.50;33.90
50738;DHT22;36703;48.154;17.126;2023-04-03T22:27:28;7.40;33.80
50738;DHT22;36703;48.154;17.126;2023-04-03T22:31:30;7.50;34.00
50738;DHT22;36703;48.154;17.126;2023-04-03T22:35:31;7.40;34.00
50738;DHT22;36703;48.154;17.126;2023-04-03T22:39:32;7.30;34.10
50738;DHT22;36703;48.154;17.126;2023-04-03T22:43:35;7.30;34.20
50738;DHT22;36703;48.154;17.126;2023-04-03T22:47:37;7.20;34.20
50738;DHT22;36703;48.154;17.126;2023-04-03T22:51:38;7.30;34.40
50738;DHT22;36703;48.154;17.126;2023-04-03T22:55:40;7.30;34.30
50738;DHT22;36703;48.154;17.126;2023-04-03T22:59:41;7.20;34.30
50738;DHT22;36703;48.154;17.126;2023-04-03T23:03:43;7.20;34.30
50738;DHT22;36703;48.154;17.126;2023-04-03T23:07:44;7.30;34.30
50738;DHT22;36703;48.154;17.126;2023-04-03T23:11:45;7.20;34.30
50738;DHT22;36703;48.154;17.126;2023-04-03T23:15:57;7.20;34.30
50738;DHT22;36703;48.154;17.126;2023-04-03T23:19:59;7.20;35.00
50738;DHT22;36703;48.154;17.126;2023-04-03T23:24:00;7.20;34.50
50738;DHT22;36703;48.154;17.126;2023-04-03T23:28:02;7.20;34.50
50738;DHT22;36703;48.154;17.126;2023-04-03T23:32:04;7.10;34.60
50738;DHT22;36703;48.154;17.126;2023-04-03T23:36:06;7.10;34.60
50738;DHT22;36703;48.154;17.126;2023-04-03T23:40:08;7.10;34.70
50738;DHT22;36703;48.154;17.126;2023-04-03T23:44:10;7.00;34.70
50738;DHT22;36703;48.154;17.126;2023-04-03T23:48:11;7.00;34.80
50738;DHT22;36703;48.154;17.126;2023-04-03T23:52:12;7.10;34.90
50738;DHT22;36703;48.154;17.126;2023-04-03T23:56:14;7.00;35.00
